Time;durP1;ratioP1;P1;durP2;ratioP2;P2;SDS_P1;SDS_P2;PMS_P1;PMS_P2;Temp;Humidity;BMP_temperature;BMP_pressure;BME280_temperature;BME280_humidity;BME280_pressure;Samples;Min_cycle;Max_cycle;Signal;HPM_P1;HPM_P2
2023/10/09 00:01:20;;;;;;;8.80;2.22;;;15.80;99.90;;;;;;4932640;29;20043;-77
2023/10/09 00:04:02;;;;;;;9.68;2.35;;;15.80;99.90;;;;;;4936642;29;20554;-77
2023/10/09 00:06:36;;;;;;;9.13;2.80;;;15.80;99.90;;;;;;4935618;29;20526;-77
2023/10/09 00:11:48;;;;;;;9.75;2.83;;;15.70;99.90;;;;;;4958361;28;20023;-78
2023/10/09 00:14:18;;;;;;;10.13;2.63;;;15.60;99.90;;;;;;4954102;28;20051;-77
2023/10/09 00:16:55;;;;;;;7.85;2.78;;;15.60;99.90;;;;;;4966940;28;20031;-77
2023/10/09 00:19:42;;;;;;;9.07;3.03;;;15.60;99.90;;;;;;4957249;28;20039;-77
2023/10/09 00:26:19;;;;;;;6.30;1.92;;;15.50;99.90;;;;;;4945474;28;20051;-77
2023/10/09 00:28:47;;;;;;;5.90;2.35;;;15.60;99.90;;;;;;4881497;29;20056;-77
2023/10/09 00:34:05;;;;;;;;;;;15.60;99.90;;;;;;4965178;28;20499;-77
2023/10/09 00:36:49;;;;;;;6.93;2.17;;;15.60;99.90;;;;;;4957029;28;19937;-78
2023/10/09 00:39:23;;;;;;;4.47;1.98;;;15.60;99.90;;;;;;4966469;28;20039;-78
2023/10/09 00:41:48;;;;;;;10.60;2.20;;;15.60;99.90;;;;;;4956764;28;20118;-77
2023/10/09 00:44:23;;;;;;;9.00;2.65;;;15.50;99.90;;;;;;4956451;29;20086;-77
2023/10/09 00:47:07;;;;;;;10.65;3.72;;;15.50;99.90;;;;;;4971706;28;20475;-78
2023/10/09 00:49:41;;;;;;;8.63;2.97;;;15.50;99.90;;;;;;4959951;29;20039;-77
2023/10/09 00:52:17;;;;;;;7.75;2.60;;;15.50;99.90;;;;;;4968058;28;20159;-77
2023/10/09 00:54:50;;;;;;;17.17;3.83;;;15.50;99.90;;;;;;4955870;29;20036;-77
2023/10/09 00:57:25;;;;;;;8.05;2.17;;;15.50;99.90;;;;;;4950393;29;20122;-78
2023/10/09 01:03:28;;;;;;;5.55;1.85;;;15.50;99.90;;;;;;4940086;28;20044;-77
2023/10/09 01:11:30;;;;;;;7.50;2.20;;;15.40;99.90;;;;;;4956346;29;20037;-77
2023/10/09 01:16:43;;;;;;;5.57;2.20;;;15.40;99.90;;;;;;4957053;28;20035;-77
2023/10/09 01:19:19;;;;;;;9.05;3.45;;;15.50;99.90;;;;;;4966067;28;20512;-77
2023/10/09 01:21:51;;;;;;;5.38;2.80;;;15.40;99.90;;;;;;4956126;29;20043;-77
2023/10/09 01:24:39;;;;;;;10.65;2.35;;;15.40;99.90;;;;;;4955783;29;20082;-77
2023/10/09 01:27:14;;;;;;;6.90;1.63;;;15.40;99.90;;;;;;4925476;29;20039;-77
2023/10/09 01:29:53;;;;;;;9.05;2.90;;;15.30;99.90;;;;;;4971801;28;20070;-77
2023/10/09 01:32:37;;;;;;;11.63;2.83;;;15.30;99.90;;;;;;4954396;28;20035;-77
2023/10/09 01:35:26;;;;;;;8.57;2.60;;;15.30;99.90;;;;;;4964861;28;20558;-77
2023/10/09 01:38:54;;;;;;;5.68;1.77;;;15.30;99.90;;;;;;4947843;29;20138;-77
2023/10/09 01:41:20;;;;;;;7.57;2.22;;;15.30;99.90;;;;;;4901081;29;20412;-78
2023/10/09 01:43:47;;;;;;;8.80;2.40;;;15.30;99.90;;;;;;4914790;29;20036;-78
2023/10/09 01:46:19;;;;;;;9.02;4.07;;;15.30;99.90;;;;;;4886750;29;20056;-78
2023/10/09 01:48:49;;;;;;;4.70;2.15;;;15.40;99.90;;;;;;4899142;29;21951;-78
2023/10/09 01:51:24;;;;;;;7.15;2.80;;;15.30;99.90;;;;;;4918110;28;20032;-77
2023/10/09 01:54:27;;;;;;;8.90;3.30;;;15.30;99.90;;;;;;4952722;28;20086;-78
2023/10/09 01:57:21;;;;;;;6.10;2.33;;;15.20;99.90;;;;;;4960030;28;20043;-78
2023/10/09 02:00:03;;;;;;;5.43;2.15;;;15.20;99.90;;;;;;4943352;29;20047;-77
2023/10/09 02:02:38;;;;;;;6.15;2.08;;;15.20;99.90;;;;;;4940940;29;20475;-78
2023/10/09 02:05:23;;;;;;;9.55;1.98;;;15.20;99.90;;;;;;4955936;28;20023;-78
2023/10/09 02:08:21;;;;;;;9.05;2.15;;;15.20;99.90;;;;;;4955741;28;20395;-77
2023/10/09 02:10:56;;;;;;;6.95;2.03;;;15.10;99.90;;;;;;4916127;29;20036;-77
2023/10/09 02:13:42;;;;;;;5.53;2.42;;;15.10;99.90;;;;;;4915995;29;20044;-77
2023/10/09 02:16:28;;;;;;;15.38;3.53;;;15.10;99.90;;;;;;4889783;29;20591;-78
2023/10/09 02:18:58;;;;;;;6.80;2.05;;;15.10;99.90;;;;;;4888462;29;20081;-77
2023/10/09 02:21:34;;;;;;;19.48;3.03;;;15.10;99.90;;;;;;4913582;29;20051;-77
2023/10/09 02:25:05;;;;;;;9.88;3.20;;;15.10;99.90;;;;;;4898724;29;20099;-77
2023/10/09 02:28:05;;;;;;;11.00;1.70;;;15.10;99.90;;;;;;4869820;29;20057;-77
2023/10/09 02:30:34;;;;;;;7.45;3.22;;;15.10;99.90;;;;;;4892246;29;20059;-78
2023/10/09 02:33:27;;;;;;;7.95;1.98;;;15.00;99.90;;;;;;4884380;29;20044;-77
2023/10/09 02:36:06;;;;;;;8.98;3.13;;;15.00;99.90;;;;;;4900744;29;20140;-78
2023/10/09 02:38:59;;;;;;;8.88;2.83;;;15.00;99.90;;;;;;4908166;29;20028;-78
2023/10/09 02:41:34;;;;;;;7.80;2.60;;;15.10;99.90;;;;;;4893847;29;21283;-77
2023/10/09 02:44:11;;;;;;;11.05;2.35;;;15.00;99.90;;;;;;4892558;29;20135;-77
2023/10/09 02:46:44;;;;;;;10.95;2.67;;;15.10;99.90;;;;;;4905282;29;20070;-77
2023/10/09 02:49:16;;;;;;;7.65;2.08;;;15.00;99.90;;;;;;4949840;28;20027;-77
2023/10/09 02:51:53;;;;;;;7.40;3.10;;;15.00;99.90;;;;;;4956704;28;20050;-78
2023/10/09 02:55:22;;;;;;;16.42;4.70;;;14.90;99.90;;;;;;4952588;29;20082;-78
2023/10/09 02:57:51;;;;;;;9.75;2.83;;;14.90;99.90;;;;;;4879224;29;20510;-77
2023/10/09 03:00:29;;;;;;;13.35;3.38;;;14.90;99.90;;;;;;4916885;29;20055;-78
2023/10/09 03:02:58;;;;;;;15.15;2.83;;;14.90;99.90;;;;;;4935123;29;20420;-78
2023/10/09 03:05:38;;;;;;;9.20;1.85;;;14.90;99.90;;;;;;4936351;29;20537;-77
2023/10/09 03:08:47;;;;;;;7.18;2.97;;;14.90;99.90;;;;;;4920470;29;20111;-77
2023/10/09 03:11:28;;;;;;;5.90;2.30;;;14.90;99.90;;;;;;4925760;29;20472;-78
2023/10/09 03:14:06;;;;;;;10.15;2.08;;;15.00;99.90;;;;;;4945560;29;20051;-78
2023/10/09 03:17:35;;;;;;;5.05;2.13;;;14.90;99.90;;;;;;4930221;29;20046;-78
2023/10/09 03:24:15;;;;;;;10.60;2.13;;;14.80;99.90;;;;;;4889062;29;20040;-77
2023/10/09 03:26:47;;;;;;;7.13;2.67;;;14.70;99.90;;;;;;4947346;29;20036;-77
2023/10/09 03:29:42;;;;;;;9.30;1.98;;;14.70;99.90;;;;;;4948640;28;20113;-78
2023/10/09 03:32:08;;;;;;;7.97;2.58;;;14.70;99.90;;;;;;4929810;29;20096;-78
2023/10/09 03:34:51;;;;;;;9.75;2.28;;;14.70;99.90;;;;;;4958594;29;20040;-78
2023/10/09 03:37:33;;;;;;;7.53;2.75;;;14.60;99.90;;;;;;4943227;29;20087;-78
2023/10/09 03:40:06;;;;;;;8.18;2.03;;;14.60;99.90;;;;;;4943778;29;20060;-78
2023/10/09 03:42:41;;;;;;;10.35;3.53;;;14.60;99.90;;;;;;4960254;28;20043;-78
2023/10/09 03:45:31;;;;;;;7.55;3.15;;;14.60;99.90;;;;;;4976733;28;20039;-78
2023/10/09 03:48:14;;;;;;;9.13;2.17;;;14.60;99.90;;;;;;4954474;28;20102;-77
2023/10/09 03:50:55;;;;;;;20.58;3.08;;;14.60;99.90;;;;;;4960490;28;20027;-78
2023/10/09 03:53:24;;;;;;;6.85;2.40;;;14.60;99.90;;;;;;4960015;28;20043;-78
2023/10/09 03:55:59;;;;;;;14.18;3.20;;;14.60;99.90;;;;;;4962084;28;20118;-78
2023/10/09 03:58:54;;;;;;;10.88;2.50;;;14.60;99.90;;;;;;4959008;28;20126;-78
2023/10/09 04:01:45;;;;;;;9.20;2.92;;;14.60;99.90;;;;;;4946936;28;20043;-78
2023/10/09 04:04:23;;;;;;;10.13;2.22;;;14.50;99.90;;;;;;4919613;29;20067;-78
2023/10/09 04:06:54;;;;;;;8.07;3.28;;;14.50;99.90;;;;;;4904320;29;20036;-78
2023/10/09 04:09:39;;;;;;;8.75;3.10;;;14.50;99.90;;;;;;4937804;29;20062;-78
2023/10/09 04:12:25;;;;;;;8.60;2.67;;;14.40;99.90;;;;;;4959217;29;20051;-78
2023/10/09 04:15:15;;;;;;;9.23;2.50;;;14.40;99.90;;;;;;4960049;28;20042;-78
2023/10/09 04:17:43;;;;;;;10.50;3.90;;;14.40;99.90;;;;;;4932860;28;20051;-78
2023/10/09 04:23:08;;;;;;;7.85;2.97;;;14.40;99.90;;;;;;4958048;28;20598;-78
2023/10/09 04:25:59;;;;;;;15.90;2.42;;;14.40;99.90;;;;;;4959425;28;20039;-78
2023/10/09 04:28:29;;;;;;;9.98;2.42;;;14.40;99.90;;;;;;4982631;28;20046;-78
2023/10/09 04:31:17;;;;;;;5.32;1.70;;;14.40;99.90;;;;;;4974769;28;20038;-78
2023/10/09 04:34:23;;;;;;;7.82;1.77;;;14.60;99.90;;;;;;4967436;28;20102;-78
2023/10/09 04:37:01;;;;;;;23.15;2.67;;;14.50;99.90;;;;;;4965253;28;20038;-78
2023/10/09 04:40:59;;;;;;;11.27;2.42;;;14.50;99.90;;;;;;4979375;28;20039;-78
2023/10/09 04:52:55;;;;;;;11.10;3.00;;;14.50;99.90;;;;;;4920142;29;20032;-78
2023/10/09 05:02:36;;;;;;;9.35;2.28;;;14.50;99.90;;;;;;4862917;29;20037;-78
2023/10/09 05:08:32;;;;;;;18.25;3.78;;;14.70;99.90;;;;;;4808157;29;20047;-78
2023/10/09 14:32:56;;;;;;;4.82;1.90;;;26.10;81.20;;;;;;4946439;28;20027;-74
2023/10/09 14:35:26;;;;;;;6.43;2.00;;;26.30;82.50;;;;;;4950742;28;20118;-74
2023/10/09 14:37:53;;;;;;;4.28;1.42;;;26.80;80.60;;;;;;4948445;28;20544;-73
2023/10/09 14:40:29;;;;;;;5.38;1.10;;;26.40;80.80;;;;;;4953616;28;20487;-73
2023/10/09 14:42:58;;;;;;;8.60;2.70;;;26.70;79.10;;;;;;4947113;28;20070;-74
2023/10/09 14:45:27;;;;;;;7.55;1.90;;;26.90;78.80;;;;;;4950663;28;20035;-76
2023/10/09 14:48:11;;;;;;;5.90;2.42;;;27.00;77.60;;;;;;4948347;28;20039;-73
2023/10/09 14:50:38;;;;;;;2.70;1.33;;;27.10;76.50;;;;;;4960049;28;20106;-73
2023/10/09 14:53:04;;;;;;;6.65;1.98;;;27.10;77.30;;;;;;4955395;28;20524;-74
2023/10/09 14:55:31;;;;;;;6.20;2.47;;;26.80;76.70;;;;;;4952924;28;20035;-74
2023/10/09 14:57:58;;;;;;;8.35;1.88;;;27.00;76.30;;;;;;4948370;28;20025;-76
2023/10/09 15:00:26;;;;;;;7.32;2.58;;;27.30;76.20;;;;;;4956191;28;20038;-74
2023/10/09 15:02:52;;;;;;;9.75;1.55;;;27.20;77.00;;;;;;4957788;28;20039;-73
2023/10/09 15:05:18;;;;;;;6.75;1.65;;;27.30;76.40;;;;;;4954982;28;20039;-73
2023/10/09 15:07:45;;;;;;;9.75;1.98;;;27.60;77.20;;;;;;4955701;28;20032;-74
2023/10/09 15:10:15;;;;;;;4.57;2.00;;;27.00;78.30;;;;;;4958506;28;20486;-73
2023/10/09 15:12:42;;;;;;;8.52;2.40;;;27.00;78.30;;;;;;4965213;28;20063;-74
2023/10/09 15:15:15;;;;;;;11.07;1.90;;;27.00;77.40;;;;;;4956873;28;20094;-73
2023/10/09 15:17:47;;;;;;;5.97;1.83;;;27.10;76.70;;;;;;4964765;28;20028;-74
2023/10/09 15:20:14;;;;;;;10.35;2.00;;;26.70;77.00;;;;;;4954586;28;20027;-72
2023/10/09 15:22:44;;;;;;;6.32;1.65;;;26.40;78.30;;;;;;4934795;28;20028;-73
2023/10/09 15:25:17;;;;;;;5.55;1.58;;;26.40;78.00;;;;;;4940411;28;20111;-73
2023/10/09 15:27:46;;;;;;;6.15;1.42;;;26.40;77.70;;;;;;4954024;28;20051;-74
2023/10/09 15:30:16;;;;;;;5.93;2.03;;;26.10;78.30;;;;;;4955764;28;20058;-74
2023/10/09 15:32:43;;;;;;;4.00;1.77;;;25.50;78.90;;;;;;4971966;28;20081;-73
2023/10/09 15:35:15;;;;;;;3.75;1.52;;;25.70;78.30;;;;;;4956452;28;20035;-74
2023/10/09 15:37:42;;;;;;;7.03;2.15;;;25.30;79.70;;;;;;4971467;28;20185;-74
2023/10/09 15:40:14;;;;;;;8.95;2.13;;;25.40;80.60;;;;;;4958543;28;20086;-73
2023/10/09 15:42:49;;;;;;;4.97;1.88;;;25.40;77.80;;;;;;4955276;28;20046;-73
2023/10/09 15:45:16;;;;;;;7.20;2.00;;;25.10;78.60;;;;;;4955796;28;20399;-73
2023/10/09 15:47:44;;;;;;;5.30;2.20;;;24.90;79.40;;;;;;4970285;28;20031;-72
2023/10/09 15:50:12;;;;;;;6.82;1.80;;;24.90;79.40;;;;;;4956095;28;20057;-75
2023/10/09 15:52:39;;;;;;;7.78;1.88;;;24.70;80.00;;;;;;4972058;28;20033;-77
2023/10/09 15:55:20;;;;;;;6.35;1.95;;;24.60;80.50;;;;;;4938573;29;20065;-76
2023/10/09 15:57:51;;;;;;;8.98;2.80;;;24.60;81.10;;;;;;4969114;28;20031;-77
2023/10/09 16:00:17;;;;;;;10.68;2.13;;;24.50;80.70;;;;;;4952093;29;20074;-76
2023/10/09 16:02:46;;;;;;;6.72;1.77;;;24.40;80.70;;;;;;4963986;28;20071;-76
2023/10/09 16:05:12;;;;;;;9.00;2.55;;;24.40;80.80;;;;;;4944625;29;20027;-77
2023/10/09 16:07:40;;;;;;;6.28;2.38;;;24.20;81.20;;;;;;4963165;28;20034;-74
2023/10/09 16:10:09;;;;;;;4.57;1.48;;;24.10;81.60;;;;;;4954838;28;20027;-76
2023/10/09 16:12:39;;;;;;;8.20;2.20;;;23.90;82.00;;;;;;4963329;28;20054;-76
2023/10/09 16:15:06;;;;;;;6.32;2.42;;;23.80;82.10;;;;;;4953105;28;20047;-75
2023/10/09 16:17:37;;;;;;;8.70;1.80;;;23.80;81.80;;;;;;4960261;28;20051;-76
2023/10/09 16:20:05;;;;;;;;;;;23.70;82.60;;;;;;4976937;28;20522;-62
2023/10/09 16:22:32;;;;;;;8.13;2.17;;;23.60;83.00;;;;;;4961381;28;20336;-53
2023/10/09 16:25:01;;;;;;;9.45;1.83;;;23.60;83.00;;;;;;4955860;28;20026;-66
2023/10/09 16:27:27;;;;;;;6.03;1.83;;;23.40;82.80;;;;;;4984349;28;20026;-54
2023/10/09 16:29:54;;;;;;;3.58;1.50;;;23.40;82.20;;;;;;4957676;28;20034;-55
2023/10/09 16:32:23;;;;;;;4.70;1.90;;;23.40;82.80;;;;;;4976865;28;20031;-73
2023/10/09 16:34:53;;;;;;;5.60;1.67;;;23.30;82.60;;;;;;4951290;28;20495;-73
2023/10/09 16:37:22;;;;;;;10.07;2.85;;;23.30;82.60;;;;;;4964990;28;20119;-72
2023/10/09 16:39:51;;;;;;;4.78;1.50;;;23.10;82.20;;;;;;4949209;28;20042;-70
2023/10/09 16:42:23;;;;;;;7.47;2.25;;;23.00;82.60;;;;;;4950335;28;20171;-72
2023/10/09 16:44:50;;;;;;;5.32;1.83;;;22.90;82.90;;;;;;4950395;28;20054;-73
2023/10/09 16:47:16;;;;;;;5.40;2.13;;;22.90;82.90;;;;;;4950708;28;20182;-71
2023/10/09 16:49:42;;;;;;;6.20;2.03;;;22.80;82.90;;;;;;4952753;28;20031;-72
2023/10/09 16:52:11;;;;;;;6.88;1.60;;;22.70;83.10;;;;;;4955131;28;20085;-72
2023/10/09 16:54:43;;;;;;;4.88;1.73;;;22.70;83.30;;;;;;4952484;28;20043;-72
2023/10/09 16:57:10;;;;;;;6.28;2.05;;;22.60;83.20;;;;;;4954390;28;20027;-73
2023/10/09 16:59:36;;;;;;;3.95;1.75;;;22.60;83.40;;;;;;4952250;28;20038;-75
2023/10/09 17:02:07;;;;;;;6.60;2.15;;;22.50;83.70;;;;;;4954048;28;20027;-73
2023/10/09 17:04:34;;;;;;;9.00;2.90;;;22.50;84.00;;;;;;4950604;28;20039;-75
2023/10/09 17:07:01;;;;;;;5.80;1.85;;;22.40;84.70;;;;;;4947511;28;20031;-74
2023/10/09 17:09:27;;;;;;;7.20;2.33;;;22.30;85.50;;;;;;4950068;28;20043;-72
2023/10/09 17:11:53;;;;;;;18.00;4.63;;;22.30;86.60;;;;;;4954847;29;20101;-72
2023/10/09 17:14:26;;;;;;;20.60;6.05;;;22.10;86.90;;;;;;4949493;28;20038;-70
2023/10/09 17:16:57;;;;;;;6.90;2.40;;;22.00;87.40;;;;;;4952120;28;20039;-71
2023/10/09 17:19:26;;;;;;;12.38;3.03;;;21.90;89.00;;;;;;4949337;28;20415;-71
2023/10/09 17:21:52;;;;;;;12.10;3.38;;;21.90;88.90;;;;;;4954543;28;20479;-71
2023/10/09 17:24:20;;;;;;;20.98;2.90;;;21.80;89.50;;;;;;4947813;28;20050;-73
2023/10/09 17:26:50;;;;;;;23.42;4.68;;;21.70;90.40;;;;;;4955383;28;20395;-77
2023/10/09 17:29:18;;;;;;;8.25;2.70;;;21.60;90.10;;;;;;4950196;28;20031;-76
2023/10/09 17:31:43;;;;;;;8.30;1.98;;;21.50;90.40;;;;;;4968649;28;20036;-77
2023/10/09 17:34:09;;;;;;;10.20;3.35;;;21.50;90.20;;;;;;4948645;28;20372;-74
2023/10/09 17:36:35;;;;;;;9.88;2.67;;;21.40;91.20;;;;;;4954654;29;20035;-75
2023/10/09 17:39:04;;;;;;;13.38;3.40;;;21.40;91.60;;;;;;4946223;28;20023;-76
2023/10/09 17:41:34;;;;;;;10.48;3.28;;;21.30;90.20;;;;;;4968952;28;20027;-76
2023/10/09 17:44:04;;;;;;;5.03;2.20;;;21.40;90.10;;;;;;4951592;28;20019;-77
2023/10/09 17:46:29;;;;;;;6.97;2.55;;;21.30;89.70;;;;;;4969469;28;20066;-75
2023/10/09 17:48:58;;;;;;;8.32;2.15;;;21.30;89.70;;;;;;4951478;28;20546;-75
2023/10/09 17:51:23;;;;;;;7.93;2.90;;;21.40;89.00;;;;;;4953942;28;20062;-75
2023/10/09 17:53:50;;;;;;;13.82;3.13;;;21.40;88.90;;;;;;4934279;28;20138;-73
2023/10/09 17:56:19;;;;;;;11.18;2.83;;;21.40;88.80;;;;;;4954141;28;20130;-75
2023/10/09 17:58:49;;;;;;;16.38;3.30;;;21.40;88.40;;;;;;4946915;28;20027;-73
2023/10/09 18:01:17;;;;;;;9.65;2.45;;;21.40;88.50;;;;;;4948200;28;20130;-74
2023/10/09 18:03:42;;;;;;;14.23;2.88;;;21.40;88.20;;;;;;4948466;28;20114;-75
2023/10/09 18:06:12;;;;;;;9.77;2.22;;;21.50;88.20;;;;;;4953950;29;20110;-74
2023/10/09 18:08:39;;;;;;;11.35;3.13;;;21.50;88.40;;;;;;4949117;28;20031;-74
2023/10/09 18:11:05;;;;;;;6.50;2.15;;;21.50;87.90;;;;;;4953576;28;20027;-74
2023/10/09 18:13:35;;;;;;;6.68;2.45;;;21.50;87.80;;;;;;4948725;28;20056;-74
2023/10/09 18:16:12;;;;;;;5.47;2.07;;;21.50;87.60;;;;;;4960345;28;20035;-75
2023/10/09 18:18:43;;;;;;;8.27;2.38;;;21.50;87.40;;;;;;4960272;28;20527;-75
2023/10/09 18:21:09;;;;;;;11.55;2.70;;;21.50;87.40;;;;;;4968561;28;20081;-74
2023/10/09 18:23:36;;;;;;;7.07;2.30;;;21.50;88.00;;;;;;4947596;28;20039;-75
2023/10/09 18:26:06;;;;;;;5.85;2.50;;;21.50;87.30;;;;;;4956797;28;20020;-74
2023/10/09 18:28:36;;;;;;;6.57;2.27;;;21.50;90.20;;;;;;4944820;28;20506;-74
2023/10/09 18:31:05;;;;;;;6.95;2.60;;;21.40;90.90;;;;;;4945855;28;20211;-76
2023/10/09 18:33:32;;;;;;;7.18;3.30;;;21.40;90.80;;;;;;4948350;29;20047;-75
2023/10/09 18:36:03;;;;;;;8.48;3.03;;;21.40;90.60;;;;;;4953292;28;20109;-75
2023/10/09 18:38:29;;;;;;;10.45;3.88;;;21.30;92.10;;;;;;4947464;28;20066;-75
2023/10/09 18:40:56;;;;;;;12.88;3.00;;;21.20;91.60;;;;;;4951093;28;20422;-75
2023/10/09 18:43:23;;;;;;;10.95;2.60;;;21.10;91.40;;;;;;4947214;28;20448;-76
2023/10/09 18:45:48;;;;;;;12.38;3.28;;;21.00;92.70;;;;;;4953388;28;20047;-76
2023/10/09 18:48:17;;;;;;;7.80;2.58;;;21.00;92.00;;;;;;4949501;28;20107;-71
2023/10/09 18:50:43;;;;;;;8.65;2.78;;;20.90;92.70;;;;;;4964522;28;20038;-72
2023/10/09 18:53:10;;;;;;;10.25;2.83;;;20.90;94.50;;;;;;4949106;28;20082;-72
2023/10/09 18:55:37;;;;;;;6.78;2.53;;;20.90;93.10;;;;;;4951597;28;20122;-72
2023/10/09 18:58:05;;;;;;;7.30;2.53;;;20.90;91.90;;;;;;4948176;28;20027;-72
2023/10/09 19:00:30;;;;;;;4.65;2.10;;;20.90;90.70;;;;;;4949393;28;20118;-76
2023/10/09 19:02:59;;;;;;;17.10;2.40;;;20.90;90.90;;;;;;4965595;28;20119;-75
2023/10/09 19:05:26;;;;;;;6.13;2.75;;;20.90;92.70;;;;;;4965136;28;20035;-73
2023/10/09 19:07:53;;;;;;;18.08;5.63;;;20.60;96.90;;;;;;4932948;28;20832;-73
2023/10/09 19:10:22;;;;;;;7.63;2.25;;;20.60;97.80;;;;;;4963115;28;20043;-71
2023/10/09 19:12:48;;;;;;;10.45;3.25;;;20.30;98.60;;;;;;4955181;28;20030;-72
2023/10/09 19:15:14;;;;;;;7.80;2.38;;;20.30;98.10;;;;;;4966296;28;20110;-72
2023/10/09 19:17:40;;;;;;;12.27;2.90;;;20.20;97.30;;;;;;4945524;28;20587;-72
2023/10/09 19:20:16;;;;;;;8.32;2.58;;;20.20;98.30;;;;;;4948728;29;20039;-72
2023/10/09 19:22:43;;;;;;;11.63;2.65;;;20.10;97.70;;;;;;4963662;28;20061;-72
2023/10/09 19:25:25;;;;;;;7.03;2.85;;;20.00;98.30;;;;;;4945741;29;20031;-72
2023/10/09 19:27:52;;;;;;;21.02;5.22;;;19.80;99.90;;;;;;4944099;28;20027;-72
2023/10/09 19:30:19;;;;;;;23.40;9.60;;;19.60;99.90;;;;;;4945117;28;20031;-72
2023/10/09 19:32:46;;;;;;;12.85;4.30;;;19.50;99.90;;;;;;4953605;28;20054;-71
2023/10/09 19:35:12;;;;;;;16.23;3.90;;;19.30;99.90;;;;;;4959262;28;20031;-73
2023/10/09 19:37:38;;;;;;;8.23;3.10;;;19.30;99.90;;;;;;4946269;28;20042;-73
2023/10/09 19:40:09;;;;;;;11.60;3.33;;;19.30;99.90;;;;;;4950328;28;20019;-73
2023/10/09 19:42:36;;;;;;;;;;;19.20;99.90;;;;;;4929564;28;20420;-72
2023/10/09 19:45:06;;;;;;;12.32;3.35;;;19.10;99.90;;;;;;4950043;29;20241;-73
2023/10/09 19:47:32;;;;;;;8.50;2.88;;;19.20;99.90;;;;;;4945603;28;20023;-71
2023/10/09 19:49:58;;;;;;;10.48;2.85;;;19.20;99.90;;;;;;4946489;28;20039;-73
2023/10/09 19:52:24;;;;;;;11.05;2.97;;;19.00;99.90;;;;;;4966310;28;20023;-73
2023/10/09 19:54:54;;;;;;;11.18;2.38;;;19.00;99.90;;;;;;4962152;28;20138;-72
2023/10/09 19:57:20;;;;;;;10.02;3.53;;;18.80;99.90;;;;;;4950323;28;20062;-72
2023/10/09 19:59:47;;;;;;;9.32;2.58;;;18.50;99.90;;;;;;4950463;28;20432;-72
2023/10/09 20:02:14;;;;;;;9.23;3.58;;;18.60;99.90;;;;;;4951349;29;20109;-72
2023/10/09 20:04:39;;;;;;;39.60;15.38;;;18.40;99.90;;;;;;4951952;28;20038;-73
2023/10/09 20:07:05;;;;;;;9.18;4.07;;;18.50;99.90;;;;;;4953035;28;20027;-73
2023/10/09 20:09:33;;;;;;;8.48;3.83;;;18.40;99.90;;;;;;4964462;28;20126;-72
2023/10/09 20:12:01;;;;;;;15.98;5.10;;;18.40;99.90;;;;;;4961362;28;20041;-72
2023/10/09 20:14:28;;;;;;;124.03;52.35;;;18.40;99.90;;;;;;4964273;28;20059;-72
2023/10/09 20:16:54;;;;;;;39.22;18.10;;;18.30;99.90;;;;;;4944978;28;20032;-73
2023/10/09 20:19:19;;;;;;;16.90;6.90;;;18.20;99.90;;;;;;4949521;28;20042;-72
2023/10/09 20:21:46;;;;;;;25.35;10.15;;;18.10;99.90;;;;;;4964424;28;20051;-73
2023/10/09 20:24:14;;;;;;;9.30;3.85;;;18.10;99.90;;;;;;4948944;28;20378;-73
2023/10/09 20:26:41;;;;;;;20.92;7.57;;;17.80;99.90;;;;;;4952048;28;20027;-72
2023/10/09 20:29:17;;;;;;;7.38;3.88;;;17.90;99.90;;;;;;4949309;28;20026;-72
2023/10/09 20:31:45;;;;;;;9.05;3.08;;;17.90;99.90;;;;;;4965282;28;20043;-73
2023/10/09 20:34:13;;;;;;;6.88;2.75;;;17.80;99.90;;;;;;4953394;28;20030;-72
2023/10/09 20:36:43;;;;;;;13.90;5.07;;;17.60;99.90;;;;;;4932010;28;20031;-72
2023/10/09 20:39:10;;;;;;;13.35;3.85;;;17.60;99.90;;;;;;4964394;28;20035;-72
2023/10/09 20:41:39;;;;;;;32.25;10.10;;;17.50;99.90;;;;;;4950980;28;20098;-73
2023/10/09 20:44:07;;;;;;;75.10;25.52;;;17.30;99.90;;;;;;4952315;28;20028;-73
2023/10/09 20:46:37;;;;;;;15.50;5.68;;;17.20;99.90;;;;;;4952368;28;20039;-72
2023/10/09 20:49:03;;;;;;;9.15;3.15;;;17.10;99.90;;;;;;4948802;28;20050;-72
2023/10/09 20:51:30;;;;;;;6.43;2.50;;;16.90;99.90;;;;;;4951606;28;20039;-72
2023/10/09 20:53:55;;;;;;;5.72;2.35;;;16.80;99.90;;;;;;4947750;28;20981;-73
2023/10/09 20:56:23;;;;;;;9.52;2.47;;;16.80;99.90;;;;;;4968187;28;20118;-73
2023/10/09 20:58:53;;;;;;;8.82;2.35;;;16.70;99.90;;;;;;4961466;28;20047;-72
2023/10/09 21:01:19;;;;;;;7.13;2.50;;;16.50;99.90;;;;;;4968885;28;20031;-73
2023/10/09 21:03:49;;;;;;;8.35;2.33;;;16.50;99.90;;;;;;4945447;28;20030;-72
2023/10/09 21:06:16;;;;;;;7.70;3.08;;;16.40;99.90;;;;;;4942126;28;20110;-72
2023/10/09 21:08:43;;;;;;;11.27;2.95;;;16.30;99.90;;;;;;4947965;28;20031;-72
2023/10/09 21:11:09;;;;;;;22.40;3.83;;;16.20;99.90;;;;;;4941083;29;20115;-73
2023/10/09 21:13:39;;;;;;;9.40;3.20;;;16.10;99.90;;;;;;4955052;28;20058;-72
2023/10/09 21:16:09;;;;;;;8.07;2.97;;;16.20;99.90;;;;;;4952240;28;20038;-72
2023/10/09 21:18:35;;;;;;;11.57;4.13;;;16.30;99.90;;;;;;4946404;28;20039;-72
2023/10/09 21:21:02;;;;;;;13.15;3.17;;;16.30;99.90;;;;;;4951624;28;20069;-72
2023/10/09 21:23:28;;;;;;;7.20;2.58;;;16.40;99.90;;;;;;4947949;28;20035;-72
2023/10/09 21:25:54;;;;;;;8.05;3.40;;;16.40;99.90;;;;;;4954101;28;20110;-72
2023/10/09 21:28:20;;;;;;;7.85;2.40;;;16.20;99.90;;;;;;4945384;28;20559;-73
2023/10/09 21:30:46;;;;;;;8.88;2.60;;;16.00;99.90;;;;;;4931869;28;20070;-71
2023/10/09 21:33:12;;;;;;;8.52;2.58;;;16.00;99.90;;;;;;4946398;28;20019;-72
2023/10/09 21:35:40;;;;;;;10.52;2.92;;;16.00;99.90;;;;;;4968476;28;20122;-71
2023/10/09 21:38:07;;;;;;;7.45;2.58;;;15.90;99.90;;;;;;4945423;28;20039;-72
2023/10/09 21:40:36;;;;;;;7.22;2.15;;;15.70;99.90;;;;;;4966218;28;20570;-73
2023/10/09 21:43:07;;;;;;;9.95;3.85;;;15.60;99.90;;;;;;4956773;28;20027;-72
2023/10/09 21:45:44;;;;;;;6.10;2.38;;;15.70;99.90;;;;;;4964100;28;20047;-73
2023/10/09 21:48:11;;;;;;;11.65;2.95;;;15.70;99.90;;;;;;4947443;28;20046;-72
2023/10/09 21:50:38;;;;;;;6.60;3.22;;;15.70;99.90;;;;;;4949182;28;20019;-72
2023/10/09 21:53:05;;;;;;;10.35;3.05;;;15.80;99.90;;;;;;4942966;28;20090;-72
2023/10/09 21:55:33;;;;;;;10.77;2.88;;;15.80;99.90;;;;;;4936790;29;20039;-73
2023/10/09 21:58:01;;;;;;;10.52;3.38;;;15.90;99.90;;;;;;4948175;28;20042;-73
2023/10/09 22:00:34;;;;;;;14.60;2.60;;;15.90;99.90;;;;;;4965816;28;20035;-72
2023/10/09 22:03:13;;;;;;;5.15;2.33;;;15.90;99.90;;;;;;4957229;28;20482;-72
2023/10/09 22:05:42;;;;;;;13.55;3.65;;;16.00;99.90;;;;;;4951222;28;20038;-72
2023/10/09 22:08:13;;;;;;;5.93;2.47;;;16.00;99.90;;;;;;4946341;28;20030;-72
2023/10/09 22:10:41;;;;;;;;;;;16.00;99.90;;;;;;4949816;28;20399;-72
2023/10/09 22:13:14;;;;;;;11.20;2.33;;;15.90;99.90;;;;;;4931201;29;19930;-73
2023/10/09 22:15:43;;;;;;;8.63;2.88;;;15.90;99.90;;;;;;4951295;28;20074;-72
2023/10/09 22:18:19;;;;;;;6.43;2.70;;;15.90;99.90;;;;;;4944489;28;20651;-72
2023/10/09 22:20:47;;;;;;;5.90;2.08;;;15.80;99.90;;;;;;4951142;28;20027;-71
2023/10/09 22:23:18;;;;;;;6.97;2.55;;;15.80;99.90;;;;;;4946231;28;20031;-72
2023/10/09 22:25:55;;;;;;;8.80;3.03;;;15.80;99.90;;;;;;4946895;28;20522;-72
2023/10/09 22:28:23;;;;;;;8.23;3.53;;;15.70;99.90;;;;;;4947388;28;20539;-72
2023/10/09 22:30:52;;;;;;;9.35;2.92;;;15.70;99.90;;;;;;4948661;28;20034;-71
2023/10/09 22:33:24;;;;;;;5.95;3.13;;;15.70;99.90;;;;;;4943622;28;20035;-72
2023/10/09 22:35:53;;;;;;;8.10;2.90;;;15.60;99.90;;;;;;4953190;28;20031;-72
2023/10/09 22:38:20;;;;;;;20.45;3.65;;;15.60;99.90;;;;;;4946182;28;20059;-73
2023/10/09 22:40:51;;;;;;;9.70;2.35;;;15.50;99.90;;;;;;4951394;28;20038;-73
2023/10/09 22:43:20;;;;;;;8.02;2.03;;;15.50;99.90;;;;;;4947082;28;20411;-72
2023/10/09 22:45:49;;;;;;;16.77;3.08;;;15.50;99.90;;;;;;4966717;28;20498;-72
2023/10/09 22:48:18;;;;;;;5.78;1.83;;;15.40;99.90;;;;;;4957957;28;20036;-72
2023/10/09 22:50:46;;;;;;;6.78;2.78;;;15.40;99.90;;;;;;4929901;28;20106;-72
2023/10/09 22:53:32;;;;;;;12.02;2.85;;;15.40;99.90;;;;;;4942529;28;20031;-72
2023/10/09 22:56:01;;;;;;;8.10;2.53;;;15.20;99.90;;;;;;4951381;28;20109;-72
2023/10/09 22:58:36;;;;;;;6.60;2.00;;;15.10;99.90;;;;;;4944390;28;20082;-72
2023/10/09 23:01:12;;;;;;;12.10;2.75;;;15.00;99.90;;;;;;4950816;28;20151;-73
2023/10/09 23:03:40;;;;;;;7.38;2.38;;;15.10;99.90;;;;;;4946766;28;20038;-71
2023/10/09 23:06:16;;;;;;;9.30;2.30;;;15.00;99.90;;;;;;4948907;28;20079;-71
2023/10/09 23:08:42;;;;;;;7.13;3.20;;;14.90;99.90;;;;;;4958617;28;20046;-71
2023/10/09 23:11:08;;;;;;;4.57;2.20;;;14.90;99.90;;;;;;4958799;28;20475;-71
2023/10/09 23:13:37;;;;;;;10.85;2.70;;;14.90;99.90;;;;;;4949425;28;20490;-71
2023/10/09 23:16:07;;;;;;;11.00;2.92;;;14.90;99.90;;;;;;4950869;28;20554;-72
2023/10/09 23:18:42;;;;;;;10.43;2.60;;;14.70;99.90;;;;;;4947929;28;20038;-72
2023/10/09 23:21:33;;;;;;;8.20;2.65;;;14.80;99.90;;;;;;4932871;28;20110;-72
2023/10/09 23:24:13;;;;;;;10.20;3.20;;;14.80;99.90;;;;;;4945053;28;20086;-72